createdAt,value
2023-04-18T00:00:43.195Z,11.62
2023-04-18T00:03:10.430Z,11.68
2023-04-18T00:05:38.001Z,11.78
2023-04-18T00:08:05.608Z,11.86
2023-04-18T00:10:33.173Z,11.86
2023-04-18T00:13:00.485Z,11.56
2023-04-18T00:15:29.326Z,11.64
2023-04-18T00:18:00.899Z,11.78
2023-04-18T00:20:27.701Z,11.78
2023-04-18T00:22:54.986Z,11.87
2023-04-18T00:25:21.933Z,11.91
2023-04-18T00:27:48.760Z,11.83
2023-04-18T00:30:15.628Z,11.81
2023-04-18T00:32:42.297Z,11.93
2023-04-18T00:35:09.290Z,11.96
2023-04-18T00:37:36.141Z,12.03
2023-04-18T00:40:03.112Z,11.82
2023-04-18T00:42:29.843Z,11.76
2023-04-18T00:44:56.634Z,11.83
2023-04-18T00:47:23.401Z,11.78
2023-04-18T00:49:50.441Z,11.80
2023-04-18T00:52:18.530Z,11.90
2023-04-18T00:54:45.731Z,11.94
2023-04-18T00:57:13.041Z,11.96
2023-04-18T00:59:39.919Z,11.90
2023-04-18T01:02:07.895Z,11.90
2023-04-18T01:04:34.955Z,11.64
2023-04-18T01:07:02.382Z,11.51
2023-04-18T01:09:29.385Z,11.54
2023-04-18T01:11:56.298Z,11.26
2023-04-18T01:14:23.452Z,11.19
2023-04-18T01:16:50.220Z,11.28
2023-04-18T01:19:19.520Z,11.39
2023-04-18T01:21:46.465Z,11.55
2023-04-18T01:24:16.122Z,11.40
2023-04-18T01:26:45.408Z,11.37
2023-04-18T01:29:12.285Z,11.44
2023-04-18T01:31:40.241Z,11.49
2023-04-18T01:34:08.034Z,11.62
2023-04-18T01:36:35.348Z,11.66
2023-04-18T01:39:02.606Z,11.67
2023-04-18T01:41:32.468Z,11.68
2023-04-18T01:43:59.756Z,11.63
2023-04-18T01:46:26.729Z,11.61
2023-04-18T01:48:54.033Z,11.39
2023-04-18T01:51:21.526Z,11.23
2023-04-18T01:53:48.560Z,11.36
2023-04-18T01:56:15.450Z,11.19
2023-04-18T01:58:42.193Z,11.24
2023-04-18T02:01:09.122Z,11.35
2023-04-18T02:03:36.225Z,11.42
2023-04-18T02:06:04.366Z,11.40
2023-04-18T02:08:33.097Z,11.49
2023-04-18T02:11:01.423Z,11.51
2023-04-18T02:13:28.815Z,11.39
2023-04-18T02:15:57.550Z,11.37
2023-04-18T02:18:25.563Z,11.37
2023-04-18T02:20:52.473Z,11.37
2023-04-18T02:23:21.665Z,11.44
2023-04-18T02:25:48.488Z,11.43
2023-04-18T02:28:17.491Z,11.49
2023-04-18T02:30:44.271Z,11.47
2023-04-18T02:33:11.153Z,11.45
2023-04-18T02:35:38.567Z,11.42
2023-04-18T02:38:05.355Z,11.52
2023-04-18T02:40:32.094Z,11.58
2023-04-18T02:42:59.590Z,11.65
2023-04-18T02:45:26.428Z,11.68
2023-04-18T02:47:57.957Z,11.72
2023-04-18T02:50:25.297Z,11.71
2023-04-18T02:52:54.102Z,11.55
2023-04-18T02:55:24.568Z,11.62
2023-04-18T02:57:53.365Z,11.62
2023-04-18T03:00:38.749Z,11.73
2023-04-18T03:03:05.660Z,11.78
2023-04-18T03:05:40.242Z,11.82
2023-04-18T03:08:07.692Z,11.85
2023-04-18T03:10:37.151Z,11.86
2023-04-18T03:13:04.307Z,11.91
2023-04-18T03:15:31.419Z,11.90
2023-04-18T03:17:59.043Z,11.84
2023-04-18T03:20:28.977Z,11.83
2023-04-18T03:22:56.022Z,11.84
2023-04-18T03:25:25.630Z,11.88
2023-04-18T03:27:53.531Z,11.95
2023-04-18T03:30:22.593Z,12.00
2023-04-18T03:32:53.781Z,12.01
2023-04-18T03:35:20.839Z,12.01
2023-04-18T03:37:47.649Z,12.01
2023-04-18T03:40:22.460Z,12.02
2023-04-18T03:42:51.619Z,12.06
2023-04-18T03:45:19.176Z,12.06
2023-04-18T03:47:47.295Z,11.98
2023-04-18T03:50:15.273Z,11.85
2023-04-18T03:52:43.666Z,11.89
2023-04-18T03:55:11.494Z,11.94
2023-04-18T03:57:38.502Z,11.75
2023-04-18T04:00:10.700Z,11.64
2023-04-18T04:02:43.329Z,11.71
2023-04-18T04:05:16.489Z,11.78
2023-04-18T04:07:43.718Z,11.84
2023-04-18T04:10:12.485Z,11.75
2023-04-18T04:12:39.271Z,11.77
2023-04-18T04:15:06.844Z,11.84
2023-04-18T04:17:34.621Z,11.67
2023-04-18T04:20:02.007Z,11.71
2023-04-18T04:22:30.306Z,11.77
2023-04-18T04:24:57.855Z,11.86
2023-04-18T04:27:34.089Z,11.94
2023-04-18T04:30:02.624Z,11.97
2023-04-18T04:32:30.291Z,12.02
2023-04-18T04:34:57.069Z,12.00
2023-04-18T04:37:24.494Z,11.95
2023-04-18T04:40:06.498Z,11.97
2023-04-18T04:42:44.267Z,11.99
2023-04-18T04:45:20.428Z,12.01
2023-04-18T04:47:47.670Z,12.02
2023-04-18T04:50:18.818Z,12.03
2023-04-18T04:52:45.981Z,11.90
2023-04-18T04:55:13.422Z,11.87
2023-04-18T04:57:44.823Z,11.90
2023-04-18T05:00:30.248Z,11.83
2023-04-18T05:03:00.153Z,11.73
2023-04-18T05:05:28.200Z,11.71
2023-04-18T05:07:55.059Z,11.71
2023-04-18T05:10:22.093Z,11.71
2023-04-18T05:12:48.832Z,11.77
2023-04-18T05:15:16.561Z,11.84
2023-04-18T05:17:43.330Z,11.89
2023-04-18T05:20:10.491Z,11.92
2023-04-18T05:22:37.351Z,11.90
2023-04-18T05:25:04.787Z,11.80
2023-04-18T05:27:31.487Z,11.81
2023-04-18T05:29:58.185Z,11.80
2023-04-18T05:32:24.901Z,11.90
2023-04-18T05:34:51.826Z,11.88
2023-04-18T05:37:18.652Z,11.86
2023-04-18T05:39:45.372Z,11.90
2023-04-18T05:42:12.089Z,11.78
2023-04-18T05:44:38.941Z,11.59
2023-04-18T05:47:06.586Z,11.49
2023-04-18T05:49:33.650Z,11.57
2023-04-18T05:52:00.398Z,11.68
2023-04-18T05:54:27.525Z,11.74
2023-04-18T05:56:55.095Z,11.73
2023-04-18T05:59:21.868Z,11.80
2023-04-18T06:01:49.489Z,11.84
2023-04-18T06:04:16.852Z,11.88
2023-04-18T06:06:43.961Z,12.04
2023-04-18T06:09:10.737Z,12.14
2023-04-18T06:11:37.541Z,12.25
2023-04-18T06:14:04.345Z,12.46
2023-04-18T06:16:31.258Z,12.61
2023-04-18T06:19:01.207Z,12.69
2023-04-18T06:21:28.279Z,12.90
2023-04-18T06:23:55.153Z,12.95
2023-04-18T06:26:21.918Z,13.04
2023-04-18T06:28:48.747Z,13.08
2023-04-18T06:31:15.584Z,13.16
2023-04-18T06:33:42.404Z,13.25
2023-04-18T06:36:09.578Z,13.42
2023-04-18T06:38:36.273Z,13.40
2023-04-18T06:41:03.151Z,13.52
2023-04-18T06:43:29.834Z,13.57
2023-04-18T06:45:56.944Z,13.73
2023-04-18T06:48:23.706Z,13.90
2023-04-18T06:50:50.665Z,13.93
2023-04-18T06:53:17.595Z,13.97
2023-04-18T06:55:44.504Z,14.06
2023-04-18T06:58:13.677Z,13.99
2023-04-18T07:00:40.543Z,14.07
2023-04-18T07:03:11.469Z,14.03
2023-04-18T07:05:41.287Z,14.01
2023-04-18T07:08:07.989Z,13.97
2023-04-18T07:10:34.998Z,13.99
2023-04-18T07:13:01.845Z,13.98
2023-04-18T07:15:28.820Z,13.95
2023-04-18T07:17:55.610Z,13.92
2023-04-18T07:20:22.478Z,14.02
2023-04-18T07:22:49.350Z,14.05
2023-04-18T07:25:16.207Z,14.06
2023-04-18T07:27:42.994Z,14.06
2023-04-18T07:30:10.324Z,14.06
2023-04-18T07:32:37.028Z,14.10
2023-04-18T07:35:04.417Z,14.10
2023-04-18T07:37:31.655Z,14.19
2023-04-18T07:39:58.812Z,14.29
2023-04-18T07:42:25.814Z,14.37
2023-04-18T07:44:59.337Z,14.43
2023-04-18T07:47:29.798Z,14.50
2023-04-18T07:49:57.742Z,14.60
2023-04-18T07:52:24.464Z,14.67
2023-04-18T07:54:51.615Z,14.69
2023-04-18T07:57:18.438Z,14.65
2023-04-18T07:59:45.226Z,14.82
2023-04-18T08:02:12.186Z,15.02
2023-04-18T08:04:39.172Z,15.19
2023-04-18T08:07:06.196Z,15.31
2023-04-18T08:09:33.050Z,15.47
2023-04-18T08:11:59.751Z,15.47
2023-04-18T08:14:26.508Z,15.47
2023-04-18T08:16:53.287Z,15.59
2023-04-18T08:19:23.764Z,15.78
2023-04-18T08:21:51.998Z,15.81
2023-04-18T08:24:18.765Z,15.86
2023-04-18T08:26:45.807Z,15.85
2023-04-18T08:29:13.088Z,15.98
2023-04-18T08:31:40.352Z,15.99
2023-04-18T08:34:07.162Z,16.21
2023-04-18T08:36:34.856Z,16.34
2023-04-18T08:39:01.932Z,16.46
2023-04-18T08:41:35.792Z,16.72
2023-04-18T08:44:03.401Z,16.73
2023-04-18T08:46:34.178Z,16.62
2023-04-18T08:49:03.951Z,16.66
2023-04-18T08:51:33.042Z,16.75
2023-04-18T08:54:04.662Z,16.84
2023-04-18T08:56:31.945Z,16.80
2023-04-18T08:59:00.382Z,16.89
2023-04-18T09:01:56.493Z,16.94
2023-04-18T09:04:44.858Z,16.97
2023-04-18T09:07:19.500Z,16.94
2023-04-18T09:09:51.242Z,17.08
2023-04-18T09:12:22.932Z,17.15
2023-04-18T09:14:51.476Z,17.12
2023-04-18T09:17:35.440Z,17.22
2023-04-18T09:20:05.262Z,17.34
2023-04-18T09:22:51.953Z,17.36
2023-04-18T09:25:44.142Z,17.33
2023-04-18T09:28:31.899Z,17.22
2023-04-18T09:31:11.963Z,17.24
2023-04-18T09:33:44.920Z,17.35
2023-04-18T09:36:27.426Z,17.31
2023-04-18T09:38:56.535Z,17.31
2023-04-18T09:41:24.371Z,17.33
2023-04-18T09:44:12.365Z,17.34
2023-04-18T09:46:41.064Z,17.51
2023-04-18T09:49:10.359Z,17.62
2023-04-18T09:51:40.135Z,17.77
2023-04-18T09:54:08.344Z,17.80
2023-04-18T09:56:38.090Z,17.99
2023-04-18T09:59:09.525Z,18.14
2023-04-18T10:01:36.785Z,18.11
2023-04-18T10:04:06.870Z,17.98
2023-04-18T10:06:35.193Z,17.86
2023-04-18T10:09:05.841Z,17.93
2023-04-18T10:11:32.599Z,17.94
2023-04-18T10:14:04.783Z,18.14
2023-04-18T10:16:34.079Z,18.21
2023-04-18T10:19:26.824Z,18.21
2023-04-18T10:21:55.442Z,18.30
2023-04-18T10:24:44.012Z,18.27
2023-04-18T10:27:10.889Z,18.24
2023-04-18T10:29:51.773Z,18.17
2023-04-18T10:32:22.187Z,18.17
2023-04-18T10:34:55.210Z,18.24
2023-04-18T10:37:22.056Z,18.33
2023-04-18T10:40:03.002Z,18.53
2023-04-18T10:42:47.945Z,18.76
2023-04-18T10:45:22.400Z,18.84
2023-04-18T10:47:49.982Z,18.81
2023-04-18T10:50:17.493Z,18.80
2023-04-18T10:52:56.725Z,18.62
2023-04-18T11:16:54.744Z,17.52
2023-04-18T11:19:23.762Z,17.52
2023-04-18T11:22:17.346Z,17.64
2023-04-18T11:24:44.694Z,17.77
2023-04-18T11:27:12.872Z,17.83
2023-04-18T11:29:39.701Z,18.02
2023-04-18T11:32:07.896Z,18.09
2023-04-18T11:34:36.009Z,18.23
2023-04-18T11:37:07.713Z,18.47
2023-04-18T11:39:36.527Z,18.49
2023-04-18T11:42:03.537Z,18.58
2023-04-18T11:44:30.480Z,18.71
2023-04-18T11:46:57.284Z,18.76
2023-04-18T11:49:32.204Z,18.72
2023-04-18T11:52:00.198Z,18.47
2023-04-18T11:54:43.866Z,18.52
2023-04-18T11:57:28.283Z,18.58
2023-04-18T12:00:00.955Z,18.64
2023-04-18T12:02:43.295Z,18.76
2023-04-18T12:05:15.331Z,18.71
2023-04-18T12:07:45.047Z,18.88
2023-04-18T12:10:30.296Z,18.91
2023-04-18T12:12:59.100Z,18.81
2023-04-18T12:15:28.688Z,18.87
2023-04-18T12:18:05.052Z,18.84
2023-04-18T12:20:36.886Z,18.81
2023-04-18T12:23:04.024Z,18.32
2023-04-18T12:25:31.700Z,18.10
2023-04-18T12:28:14.935Z,18.28
2023-04-18T12:30:42.577Z,18.45
2023-04-18T12:33:09.337Z,18.70
2023-04-18T12:35:36.218Z,18.86
2023-04-18T12:38:03.207Z,18.85
2023-04-18T12:40:30.300Z,18.69
2023-04-18T12:42:57.506Z,18.54
2023-04-18T12:45:24.643Z,18.30
2023-04-18T12:47:52.505Z,18.24
2023-04-18T12:50:21.829Z,18.42
2023-04-18T12:52:49.570Z,18.66
2023-04-18T12:55:16.326Z,18.87
2023-04-18T12:57:43.894Z,18.83
2023-04-18T13:00:13.326Z,18.69
2023-04-18T13:02:43.742Z,18.60
2023-04-18T13:05:15.790Z,18.58
2023-04-18T13:07:43.587Z,18.68
2023-04-18T13:10:12.799Z,18.85
2023-04-18T13:12:42.711Z,19.01
2023-04-18T13:15:10.045Z,19.27
2023-04-18T13:17:38.810Z,19.34
2023-04-18T13:20:07.396Z,19.32
2023-04-18T13:22:35.396Z,19.24
2023-04-18T13:25:03.179Z,18.93
2023-04-18T13:27:30.105Z,18.67
2023-04-18T13:29:57.487Z,18.66
2023-04-18T13:32:25.401Z,18.71
2023-04-18T13:34:52.330Z,18.73
2023-04-18T13:37:19.205Z,18.92
2023-04-18T13:39:46.506Z,18.87
2023-04-18T13:42:15.947Z,18.93
2023-04-18T13:44:43.123Z,18.90
2023-04-18T13:47:09.928Z,18.58
2023-04-18T13:49:37.195Z,18.56
2023-04-18T13:52:04.855Z,18.61
2023-04-18T13:54:32.850Z,18.60
2023-04-18T13:57:11.599Z,18.66
2023-04-18T13:59:40.589Z,18.85
2023-04-18T14:02:08.344Z,19.21
2023-04-18T14:04:35.925Z,19.42
2023-04-18T14:07:03.853Z,19.31
2023-04-18T14:09:30.675Z,18.98
2023-04-18T14:11:58.283Z,18.99
2023-04-18T14:14:25.867Z,19.13
2023-04-18T14:16:53.754Z,19.24
2023-04-18T14:19:21.757Z,19.23
2023-04-18T14:21:48.651Z,19.10
2023-04-18T14:24:15.446Z,19.03
2023-04-18T14:26:42.407Z,18.83
2023-04-18T14:29:09.152Z,18.75
2023-04-18T14:31:35.985Z,18.58
2023-04-18T14:34:02.814Z,18.56
2023-04-18T14:36:29.584Z,18.44
2023-04-18T14:38:56.356Z,18.43
2023-04-18T14:41:23.190Z,18.27
2023-04-18T14:43:49.972Z,18.21
2023-04-18T14:46:16.831Z,18.30
2023-04-18T14:48:47.457Z,18.41
2023-04-18T14:51:17.163Z,18.60
2023-04-18T14:53:44.767Z,18.84
2023-04-18T14:56:12.113Z,18.99
2023-04-18T14:58:38.876Z,18.94
2023-04-18T15:01:05.730Z,18.77
2023-04-18T15:03:33.151Z,18.66
2023-04-18T15:06:00.491Z,18.46
2023-04-18T15:08:27.736Z,18.25
2023-04-18T15:10:54.486Z,18.12
2023-04-18T15:13:21.605Z,18.13
2023-04-18T15:15:56.345Z,18.17
2023-04-18T15:18:26.851Z,18.21
2023-04-18T15:20:53.985Z,18.17
2023-04-18T15:23:20.899Z,18.02
2023-04-18T15:25:47.815Z,18.04
2023-04-18T15:28:14.714Z,17.95
2023-04-18T15:30:44.629Z,18.02
2023-04-18T15:33:13.029Z,18.17
2023-04-18T15:35:39.788Z,18.18
2023-04-18T15:38:06.884Z,18.26
2023-04-18T15:40:36.337Z,18.49
2023-04-18T15:43:04.200Z,18.52
2023-04-18T15:45:31.332Z,18.45
2023-04-18T15:47:58.809Z,18.48
2023-04-18T15:50:26.113Z,18.58
2023-04-18T15:52:52.917Z,18.52
2023-04-18T15:55:19.842Z,18.43
2023-04-18T15:57:47.239Z,18.43
2023-04-18T16:00:17.534Z,18.36
2023-04-18T16:02:45.993Z,18.36
2023-04-18T16:05:13.635Z,18.45
2023-04-18T16:07:41.444Z,18.53
2023-04-18T16:10:10.509Z,18.46
2023-04-18T16:12:37.957Z,18.55
2023-04-18T16:15:09.924Z,18.72
2023-04-18T16:17:37.885Z,18.69
2023-04-18T16:20:09.300Z,18.74
2023-04-18T16:22:37.223Z,18.75
2023-04-18T16:25:04.737Z,18.76
2023-04-18T16:27:32.244Z,18.87
2023-04-18T16:29:59.205Z,18.90
2023-04-18T16:32:26.114Z,18.85
2023-04-18T16:34:53.009Z,18.84
2023-04-18T16:37:20.421Z,18.79
2023-04-18T16:39:47.294Z,18.64
2023-04-18T16:42:15.651Z,18.58
2023-04-18T16:44:43.987Z,18.50
2023-04-18T16:47:10.845Z,18.56
2023-04-18T16:49:37.641Z,18.59
2023-04-18T16:52:04.534Z,18.52
2023-04-18T16:54:31.463Z,18.40
2023-04-18T16:56:58.386Z,18.41
2023-04-18T16:59:25.289Z,18.44
2023-04-18T17:01:52.175Z,18.35
2023-04-18T17:04:19.324Z,18.25
2023-04-18T17:06:46.668Z,18.16
2023-04-18T17:09:14.828Z,18.08
2023-04-18T17:11:42.025Z,18.09
2023-04-18T17:14:09.336Z,17.99
2023-04-18T17:16:40.481Z,17.93
2023-04-18T17:19:07.767Z,17.83
2023-04-18T17:21:35.434Z,17.76
2023-04-18T17:24:04.099Z,17.72
2023-04-18T17:26:31.120Z,17.72
2023-04-18T17:28:58.428Z,17.62
2023-04-18T17:31:25.219Z,17.49
2023-04-18T17:33:52.128Z,17.38
2023-04-18T17:36:18.976Z,17.36
2023-04-18T17:38:49.178Z,17.31
2023-04-18T17:41:19.129Z,17.31
2023-04-18T17:43:46.772Z,17.25
2023-04-18T17:46:14.465Z,17.17
2023-04-18T17:48:41.609Z,17.10
2023-04-18T17:51:08.335Z,17.03
2023-04-18T17:53:35.115Z,16.94
2023-04-18T17:56:03.577Z,16.88
2023-04-18T17:58:30.551Z,16.83
2023-04-18T18:00:57.461Z,16.77
2023-04-18T18:03:24.610Z,16.71
2023-04-18T18:05:51.914Z,16.68
2023-04-18T18:08:18.695Z,16.62
2023-04-18T18:10:47.176Z,16.60
2023-04-18T18:13:14.012Z,16.54
2023-04-18T18:15:40.761Z,16.43
2023-04-18T18:18:07.649Z,16.44
2023-04-18T18:20:34.529Z,16.42
2023-04-18T18:23:01.789Z,16.37
2023-04-18T18:25:28.938Z,16.33
2023-04-18T18:27:55.904Z,16.26
2023-04-18T18:30:22.726Z,16.20
2023-04-18T18:32:49.700Z,16.20
2023-04-18T18:35:16.755Z,16.16
2023-04-18T18:37:43.688Z,16.09
2023-04-18T18:40:10.936Z,16.10
2023-04-18T18:42:37.902Z,16.06
2023-04-18T18:45:05.946Z,16.00
2023-04-18T18:47:34.404Z,15.99
2023-04-18T18:50:01.461Z,16.00
2023-04-18T18:52:30.990Z,16.01
2023-04-18T18:54:57.811Z,15.98
2023-04-18T18:57:24.635Z,15.94
2023-04-18T18:59:52.115Z,15.90
2023-04-18T19:02:20.258Z,15.90
2023-04-18T19:04:47.837Z,15.86
2023-04-18T19:07:14.688Z,15.86
2023-04-18T19:09:41.479Z,15.82
2023-04-18T19:12:08.931Z,15.84
2023-04-18T19:14:35.882Z,15.78
2023-04-18T19:17:03.126Z,15.69
2023-04-18T19:19:30.017Z,15.62
2023-04-18T19:21:57.896Z,15.44
2023-04-18T19:24:24.695Z,15.37
2023-04-18T19:26:51.590Z,15.37
2023-04-18T19:29:18.500Z,15.38
2023-04-18T19:31:45.704Z,15.42
2023-04-18T19:34:13.511Z,15.40
2023-04-18T19:36:40.390Z,15.41
2023-04-18T19:39:08.144Z,15.40
2023-04-18T19:41:35.040Z,15.37
2023-04-18T19:44:01.863Z,15.28
2023-04-18T19:46:28.765Z,15.25
2023-04-18T19:48:55.795Z,15.09
2023-04-18T19:51:22.929Z,15.11
2023-04-18T19:53:49.757Z,15.07
2023-04-18T19:56:16.785Z,14.97
2023-04-18T19:58:47.007Z,14.97
2023-04-18T20:01:18.920Z,14.96
2023-04-18T20:03:47.217Z,14.92
2023-04-18T20:06:14.333Z,14.86
2023-04-18T20:08:47.571Z,14.84
2023-04-18T20:11:14.874Z,14.75
2023-04-18T20:13:41.844Z,14.62
2023-04-18T20:16:09.470Z,14.63
2023-04-18T20:18:41.612Z,14.60
2023-04-18T20:21:10.003Z,14.60
2023-04-18T20:23:38.126Z,14.55
2023-04-18T20:26:05.174Z,14.40
2023-04-18T20:28:32.228Z,14.37
2023-04-18T20:30:59.452Z,14.33
2023-04-18T20:33:26.390Z,14.31
2023-04-18T20:35:54.808Z,14.35
2023-04-18T20:38:26.210Z,14.37
2023-04-18T20:40:54.251Z,14.42
2023-04-18T20:43:21.504Z,14.35
2023-04-18T20:45:51.128Z,14.31
2023-04-18T20:48:18.850Z,14.32
2023-04-18T20:50:51.135Z,14.32
2023-04-18T20:53:22.580Z,14.37
2023-04-18T20:55:49.757Z,14.39
2023-04-18T20:58:16.876Z,14.32
2023-04-18T21:00:48.330Z,14.34
2023-04-18T21:03:16.591Z,14.32
2023-04-18T21:05:44.621Z,14.31
2023-04-18T21:08:11.580Z,14.19
2023-04-18T21:10:38.512Z,14.13
2023-04-18T21:13:05.466Z,14.00
2023-04-18T21:15:32.347Z,13.86
2023-04-18T21:17:59.354Z,13.81
2023-04-18T21:20:26.271Z,13.78
2023-04-18T21:22:53.092Z,13.70
2023-04-18T21:25:21.383Z,13.65
2023-04-18T21:27:50.664Z,13.61
2023-04-18T21:30:18.176Z,13.62
2023-04-18T21:32:47.312Z,13.65
2023-04-18T21:35:15.265Z,13.64
2023-04-18T21:37:43.534Z,13.58
2023-04-18T21:40:11.247Z,13.48
2023-04-18T21:42:37.987Z,13.46
2023-04-18T21:45:06.450Z,13.48
2023-04-18T21:47:33.333Z,13.48
2023-04-18T21:50:00.362Z,13.38
2023-04-18T21:52:27.221Z,13.38
2023-04-18T21:55:01.756Z,13.33
2023-04-18T21:57:29.241Z,13.41
2023-04-18T21:59:57.770Z,13.42
2023-04-18T22:02:25.948Z,13.51
2023-04-18T22:04:52.826Z,13.54
2023-04-18T22:07:19.800Z,13.42
2023-04-18T22:09:46.985Z,13.31
2023-04-18T22:12:16.991Z,13.18
2023-04-18T22:14:48.279Z,13.13
2023-04-18T22:17:15.159Z,13.12
2023-04-18T22:19:44.567Z,13.19
2023-04-18T22:22:12.209Z,13.21
2023-04-18T22:24:39.038Z,13.24
2023-04-18T22:27:06.182Z,13.34
2023-04-18T22:29:33.176Z,13.37
2023-04-18T22:32:02.880Z,13.17
2023-04-18T22:34:29.603Z,13.09
2023-04-18T22:36:56.267Z,13.09
2023-04-18T22:39:23.092Z,13.19
2023-04-18T22:41:49.768Z,13.09
2023-04-18T22:44:16.710Z,13.02
2023-04-18T22:46:44.700Z,12.95
2023-04-18T22:49:11.656Z,12.94
2023-04-18T22:51:38.809Z,12.95
2023-04-18T22:54:05.804Z,12.94
2023-04-18T22:56:32.488Z,12.93
2023-04-18T22:58:59.205Z,12.89
2023-04-18T23:01:26.167Z,12.97
2023-04-18T23:03:53.103Z,13.03
2023-04-18T23:06:19.963Z,13.16
2023-04-18T23:08:46.737Z,13.13
2023-04-18T23:11:13.886Z,12.99
2023-04-18T23:13:40.669Z,12.85
2023-04-18T23:16:08.062Z,12.82
2023-04-18T23:18:35.155Z,12.92
2023-04-18T23:21:01.826Z,12.98
2023-04-18T23:23:28.684Z,12.93
2023-04-18T23:25:55.580Z,12.97
2023-04-18T23:28:22.680Z,13.00
2023-04-18T23:30:50.294Z,12.93
2023-04-18T23:33:17.059Z,12.98
2023-04-18T23:35:43.848Z,13.02
2023-04-18T23:38:11.255Z,13.08
2023-04-18T23:40:37.986Z,12.98
2023-04-18T23:43:04.730Z,12.80
2023-04-18T23:45:31.420Z,12.75
2023-04-18T23:47:58.296Z,12.70
2023-04-18T23:50:25.045Z,12.71
2023-04-18T23:52:51.991Z,12.82
2023-04-18T23:55:18.664Z,12.94
2023-04-18T23:57:45.414Z,13.03
